Deqen, China
Current Conditions -  °F | °C
As of 11:00 AM on Saturday 25 Oct 2014 (Local Time) from ZPPP Reporting Station
Scattered Clouds Scattered Clouds  
Wind Chill: 16°   Ceiling: Unl
Heat Index: 16°   Visibility: 6mi
Dew Point: 11°   Wind: 9mph
Humidity: 72%   Direction: 240°WSW
Pressure: 30.36"   Gusts: NA
Location:  28.5°N, 98.9°E
Report Text: ZPPP 250300Z 24004MPS 210V280 9999 SCT023 16/11 Q1028 NOSIG
Loading
Personal Weather Stations






























Interactive Weather Map
Tropical Storm Tracking
New forecast layout! Learn more

10-Day Weather Forecast

Advertisements
Track Severe Weather on mobile